Euro Snow — VQGH9 — position and weather

sailwx.info

Track history (hours):
 
Tides and Currents Weather Stations Pressure Air Temp Water Temp Dewpoint Dewpoint Depression Visibility Wind Speed Wind Dir Waves Ship Positions

Euro Snow

Last reported at 2015-May-03 12:25 UTC. Time now 2015-May-03 19:55 UTC.
Position N 54°38' W 001°09'.

Length 133 m; draft 7.2 m.

Type: Cargo ship. MMSI: 235613000.

Date/timePositionNaut miles runAvg speedWind from/ knotsBaromVisibWave heightAir tempDewpointWater temp
2015-May-03 12:25N 54°38' W 001°09'2015.1
2015-May-03 11:04N 54°33' W 000°35'816.3
2015-May-03 10:33N 54°28' W 000°24'1717.2
2015-May-03 09:33N 54°15' W 000°05'1717.3
2015-May-03 08:33N 54°02' E 000°15'1716.6
2015-May-03 07:33N 53°50' E 000°34'4414.7
2015-May-03 04:33N 53°14' E 001°17'1615.6
2015-May-03 03:33N 53°00' E 001°30'1717.4
2015-May-03 02:33N 52°48' E 001°50'1717.0
2015-May-03 01:33N 52°31' E 001°53'3517.3
2015-May-02 23:33N 51°58' E 001°35'1010.2
2015-May-02 22:33N 51°57' E 001°18'0 0.0
2015-May-02 21:33N 51°57' E 001°18'0 0.0
2015-May-02 20:33N 51°57' E 001°18'0 0.0
2015-May-02 19:27N 51°57' E 001°18'0 0.0
2015-May-02 18:30N 51°57' E 001°18'0 0.0
2015-May-02 17:33N 51°57' E 001°18'0 0.1
2015-May-02 16:34N 51°57' E 001°18'1010.2
2015-May-02 15:33N 51°54' E 001°34'1313.1
2015-May-02 14:33N 51°44' E 001°48'1717.3
2015-May-02 13:34N 51°27' E 001°45'1717.0
2015-May-02 12:34N 51°10' E 001°42'1817.6
2015-May-02 11:33N 50°55' E 001°27'3616.6
2015-May-02 09:22N 50°29' E 000°47'1417.1
2015-May-02 08:33N 50°25' E 000°26'  
2015-Apr-30 04:10N 39°52' W 009°43'2616.0
2015-Apr-30 02:32N 39°26' W 009°43'1616.2
2015-Apr-30 01:33N 39°10' W 009°42'1616.0
2015-Apr-30 00:33N 38°54' W 009°42'1515.1
2015-Apr-29 23:33N 38°39' W 009°39'1514.9
2015-Apr-29 22:33N 38°40' W 009°20'1110.9
2015-Apr-29 21:34N 38°43' W 009°07'0 0.0
2015-Apr-29 20:33N 38°43' W 009°07'0 0.0
2015-Apr-29 19:33N 38°43' W 009°07'0 0.0
2015-Apr-29 18:33N 38°43' W 009°07'0 0.0
2015-Apr-29 17:33N 38°43' W 009°07'0 0.0
2015-Apr-29 16:33N 38°43' W 009°07'0 0.0
2015-Apr-29 15:33N 38°43' W 009°07'0 0.0
2015-Apr-29 14:33N 38°43' W 009°07'0 0.0
2015-Apr-29 13:33N 38°43' W 009°07'0 0.0
2015-Apr-29 12:31N 38°43' W 009°07'0 0.0
2015-Apr-29 11:33N 38°43' W 009°07'0 0.0
2015-Apr-29 10:33N 38°43' W 009°07'5 5.4
2015-Apr-29 09:33N 38°41' W 009°13'1414.4
2015-Apr-29 08:33N 38°38' W 009°31'1313.4
2015-Apr-29 07:33N 38°47' W 009°43'1716.8
2015-Apr-29 06:33N 39°04' W 009°44'1717.0
2015-Apr-29 05:33N 39°21' W 009°43'306 9.0
2015-Apr-27 19:22N 43°43' W 006°12'1315.7
2015-Apr-27 18:30N 43°42' W 005°54'1212.6
2015-Apr-27 17:34N 43°34' W 005°41'0 0.2
2015-Apr-27 16:32N 43°33' W 005°41'0 0.0
2015-Apr-27 15:08N 43°33' W 005°41'0 0.0
2015-Apr-27 14:20N 43°33' W 005°41'0 0.5
2015-Apr-27 13:33N 43°34' W 005°41'1111.3
2015-Apr-27 12:33N 43°45' W 005°38'2 1.1
2015-Apr-27 10:33N 43°47' W 005°39'1 1.1
2015-Apr-27 09:34N 43°48' W 005°40'1 1.2
2015-Apr-27 08:31N 43°49' W 005°41'9 9.0
2015-Apr-27 07:33N 43°57' W 005°41'25712.8
2015-Apr-26 11:33N 48°14' W 005°56'28015.2
2015-Apr-25 17:09N 50°32' E 000°17'1016.4
2015-Apr-25 16:33N 50°35' E 000°32'1615.8
2015-Apr-25 15:33N 50°44' E 000°53'1515.1
2015-Apr-25 14:33N 50°53' E 001°12'1615.7
2015-Apr-25 13:33N 51°04' E 001°30'1716.9
2015-Apr-25 12:33N 51°16' E 001°48'1616.3
2015-Apr-25 11:33N 51°29' E 002°04'1615.4
2015-Apr-25 10:32N 51°41' E 002°21'4214.0
2015-Apr-25 07:30N 52°03' E 003°20'1314.3
2015-Apr-25 06:33N 52°03' E 003°42'1413.6
2015-Apr-25 05:33N 51°59' E 004°03'1 1.1
2015-Apr-25 04:31N 51°59' E 004°02'0 0.0
2015-Apr-25 03:31N 51°59' E 004°02'0 0.0
2015-Apr-25 02:32N 51°59' E 004°02'0 0.0
2015-Apr-25 01:32N 51°59' E 004°02'0 0.0
2015-Apr-25 00:28N 51°59' E 004°02'0 0.0
2015-Apr-24 23:32N 51°59' E 004°02'0 0.0
2015-Apr-24 22:32N 51°59' E 004°02'0 0.0
2015-Apr-24 21:32N 51°59' E 004°02'0 0.0
2015-Apr-24 20:32N 51°59' E 004°02'3 3.0
2015-Apr-24 19:34N 52°00' E 003°58'1211.9
2015-Apr-24 18:33N 52°10' E 003°47'1414.3
2015-Apr-24 17:33N 52°24' E 003°49'1514.6
2015-Apr-24 16:33N 52°39' E 003°53'1616.3
2015-Apr-24 15:33N 52°55' E 003°59'1616.5
2015-Apr-24 14:33N 53°06' E 004°19'1616.2
2015-Apr-24 13:33N 53°20' E 004°33'1616.0
2015-Apr-24 12:33N 53°36' E 004°39'1615.5
2015-Apr-24 11:33N 53°51' E 004°47'1515.5
2015-Apr-24 10:33N 54°05' E 004°56'1515.5
2015-Apr-24 09:33N 54°19' E 005°08'1815.6
2015-Apr-24 08:26N 54°34' E 005°22'2016.1
2015-Apr-24 07:12N 54°51' E 005°41'1016.2
2015-Apr-24 06:33N 54°60' E 005°51'1716.1
2015-Apr-24 05:29N 55°14' E 006°07'1916.1
2015-Apr-24 04:18N 55°30' E 006°26'1216.1
2015-Apr-24 03:33N 55°40' E 006°37'2016.2
2015-Apr-24 02:20N 55°57' E 006°57'3416.2
2015-Apr-24 00:14N 56°25' E 007°30'3315.8
2015-Apr-23 22:08N 56°53' E 008°03'3914.9
2015-Apr-23 19:30N 57°19' E 008°56'3214.1
2015-Apr-23 17:15N 57°36' E 009°45'1013.1
2015-Apr-23 16:28N 57°41' E 010°03'1313.3
2015-Apr-23 15:31N 57°45' E 010°25'1111.5
2015-Apr-23 14:33N 57°44' E 010°45'1616.4
2015-Apr-23 13:33N 57°28' E 010°45'  
Track history (hours):
 
Tides and Currents Weather Stations Pressure Air Temp Water Temp Dewpoint Dewpoint Depression Visibility Wind Speed Wind Dir Waves Ship Positions

Euro Snow

Last reported at 2015-May-03 12:25 UTC. Time now 2015-May-03 19:55 UTC.
Position N 54°38' W 001°09'.

Length 133 m; draft 7.2 m.

Type: Cargo ship. MMSI: 235613000.

Date/timePositionNaut miles runAvg speedWind from/ knotsBaromVisibWave heightAir tempDewpointWater temp
2015-May-03 12:25N 54°38' W 001°09'2015.1
2015-May-03 11:04N 54°33' W 000°35'816.3
2015-May-03 10:33N 54°28' W 000°24'1717.2
2015-May-03 09:33N 54°15' W 000°05'1717.3
2015-May-03 08:33N 54°02' E 000°15'1716.6
2015-May-03 07:33N 53°50' E 000°34'4414.7
2015-May-03 04:33N 53°14' E 001°17'1615.6
2015-May-03 03:33N 53°00' E 001°30'1717.4
2015-May-03 02:33N 52°48' E 001°50'1717.0
2015-May-03 01:33N 52°31' E 001°53'3517.3
2015-May-02 23:33N 51°58' E 001°35'1010.2
2015-May-02 22:33N 51°57' E 001°18'0 0.0
2015-May-02 21:33N 51°57' E 001°18'0 0.0
2015-May-02 20:33N 51°57' E 001°18'0 0.0
2015-May-02 19:27N 51°57' E 001°18'0 0.0
2015-May-02 18:30N 51°57' E 001°18'0 0.0
2015-May-02 17:33N 51°57' E 001°18'0 0.1
2015-May-02 16:34N 51°57' E 001°18'1010.2
2015-May-02 15:33N 51°54' E 001°34'1313.1
2015-May-02 14:33N 51°44' E 001°48'1717.3
2015-May-02 13:34N 51°27' E 001°45'1717.0
2015-May-02 12:34N 51°10' E 001°42'1817.6
2015-May-02 11:33N 50°55' E 001°27'3616.6
2015-May-02 09:22N 50°29' E 000°47'1417.1
2015-May-02 08:33N 50°25' E 000°26'  
2015-Apr-30 04:10N 39°52' W 009°43'2616.0
2015-Apr-30 02:32N 39°26' W 009°43'1616.2
2015-Apr-30 01:33N 39°10' W 009°42'1616.0
2015-Apr-30 00:33N 38°54' W 009°42'1515.1
2015-Apr-29 23:33N 38°39' W 009°39'1514.9
2015-Apr-29 22:33N 38°40' W 009°20'1110.9
2015-Apr-29 21:34N 38°43' W 009°07'0 0.0
2015-Apr-29 20:33N 38°43' W 009°07'0 0.0
2015-Apr-29 19:33N 38°43' W 009°07'0 0.0
2015-Apr-29 18:33N 38°43' W 009°07'0 0.0
2015-Apr-29 17:33N 38°43' W 009°07'0 0.0
2015-Apr-29 16:33N 38°43' W 009°07'0 0.0
2015-Apr-29 15:33N 38°43' W 009°07'0 0.0
2015-Apr-29 14:33N 38°43' W 009°07'0 0.0
2015-Apr-29 13:33N 38°43' W 009°07'0 0.0
2015-Apr-29 12:31N 38°43' W 009°07'0 0.0
2015-Apr-29 11:33N 38°43' W 009°07'0 0.0
2015-Apr-29 10:33N 38°43' W 009°07'5 5.4
2015-Apr-29 09:33N 38°41' W 009°13'1414.4
2015-Apr-29 08:33N 38°38' W 009°31'1313.4
2015-Apr-29 07:33N 38°47' W 009°43'1716.8
2015-Apr-29 06:33N 39°04' W 009°44'1717.0
2015-Apr-29 05:33N 39°21' W 009°43'306 9.0
2015-Apr-27 19:22N 43°43' W 006°12'1315.7
2015-Apr-27 18:30N 43°42' W 005°54'1212.6
2015-Apr-27 17:34N 43°34' W 005°41'0 0.2
2015-Apr-27 16:32N 43°33' W 005°41'0 0.0
2015-Apr-27 15:08N 43°33' W 005°41'0 0.0
2015-Apr-27 14:20N 43°33' W 005°41'0 0.5
2015-Apr-27 13:33N 43°34' W 005°41'1111.3
2015-Apr-27 12:33N 43°45' W 005°38'2 1.1
2015-Apr-27 10:33N 43°47' W 005°39'1 1.1
2015-Apr-27 09:34N 43°48' W 005°40'1 1.2
2015-Apr-27 08:31N 43°49' W 005°41'9 9.0
2015-Apr-27 07:33N 43°57' W 005°41'25712.8
2015-Apr-26 11:33N 48°14' W 005°56'28015.2
2015-Apr-25 17:09N 50°32' E 000°17'1016.4
2015-Apr-25 16:33N 50°35' E 000°32'1615.8
2015-Apr-25 15:33N 50°44' E 000°53'1515.1
2015-Apr-25 14:33N 50°53' E 001°12'1615.7
2015-Apr-25 13:33N 51°04' E 001°30'1716.9
2015-Apr-25 12:33N 51°16' E 001°48'1616.3
2015-Apr-25 11:33N 51°29' E 002°04'1615.4
2015-Apr-25 10:32N 51°41' E 002°21'4214.0
2015-Apr-25 07:30N 52°03' E 003°20'1314.3
2015-Apr-25 06:33N 52°03' E 003°42'1413.6
2015-Apr-25 05:33N 51°59' E 004°03'1 1.1
2015-Apr-25 04:31N 51°59' E 004°02'0 0.0
2015-Apr-25 03:31N 51°59' E 004°02'0 0.0
2015-Apr-25 02:32N 51°59' E 004°02'0 0.0
2015-Apr-25 01:32N 51°59' E 004°02'0 0.0
2015-Apr-25 00:28N 51°59' E 004°02'0 0.0
2015-Apr-24 23:32N 51°59' E 004°02'0 0.0
2015-Apr-24 22:32N 51°59' E 004°02'0 0.0
2015-Apr-24 21:32N 51°59' E 004°02'0 0.0
2015-Apr-24 20:32N 51°59' E 004°02'3 3.0
2015-Apr-24 19:34N 52°00' E 003°58'1211.9
2015-Apr-24 18:33N 52°10' E 003°47'1414.3
2015-Apr-24 17:33N 52°24' E 003°49'1514.6
2015-Apr-24 16:33N 52°39' E 003°53'1616.3
2015-Apr-24 15:33N 52°55' E 003°59'1616.5
2015-Apr-24 14:33N 53°06' E 004°19'1616.2
2015-Apr-24 13:33N 53°20' E 004°33'1616.0
2015-Apr-24 12:33N 53°36' E 004°39'1615.5
2015-Apr-24 11:33N 53°51' E 004°47'1515.5
2015-Apr-24 10:33N 54°05' E 004°56'1515.5
2015-Apr-24 09:33N 54°19' E 005°08'1815.6
2015-Apr-24 08:26N 54°34' E 005°22'2016.1
2015-Apr-24 07:12N 54°51' E 005°41'1016.2
2015-Apr-24 06:33N 54°60' E 005°51'1716.1
2015-Apr-24 05:29N 55°14' E 006°07'1916.1
2015-Apr-24 04:18N 55°30' E 006°26'1216.1
2015-Apr-24 03:33N 55°40' E 006°37'2016.2
2015-Apr-24 02:20N 55°57' E 006°57'3416.2
2015-Apr-24 00:14N 56°25' E 007°30'3315.8
2015-Apr-23 22:08N 56°53' E 008°03'3914.9
2015-Apr-23 19:30N 57°19' E 008°56'3214.1
2015-Apr-23 17:15N 57°36' E 009°45'1013.1
2015-Apr-23 16:28N 57°41' E 010°03'1313.3
2015-Apr-23 15:31N 57°45' E 010°25'1111.5
2015-Apr-23 14:33N 57°44' E 010°45'1616.4
2015-Apr-23 13:33N 57°28' E 010°45'  

Dump ship's entire track history